sensor_id;sensor_type;location;lat;lon;timestamp;P1;durP1;ratioP1;P2;durP2;ratioP2
80211;SDS011;69530;37.974;23.708;2023-05-06T00:00:00;6.68;;;3.88;;
80211;SDS011;69530;37.974;23.708;2023-05-06T00:02:27;6.93;;;4.07;;
80211;SDS011;69530;37.974;23.708;2023-05-06T00:04:53;5.63;;;3.80;;
80211;SDS011;69530;37.974;23.708;2023-05-06T00:07:20;6.25;;;4.10;;
80211;SDS011;69530;37.974;23.708;2023-05-06T00:09:46;7.03;;;3.53;;
80211;SDS011;69530;37.974;23.708;2023-05-06T00:12:12;4.97;;;3.50;;
80211;SDS011;69530;37.974;23.708;2023-05-06T00:14:38;4.60;;;3.53;;
80211;SDS011;69530;37.974;23.708;2023-05-06T00:17:04;5.55;;;3.70;;
80211;SDS011;69530;37.974;23.708;2023-05-06T00:19:30;5.78;;;3.63;;
80211;SDS011;69530;37.974;23.708;2023-05-06T00:21:56;5.53;;;3.53;;
80211;SDS011;69530;37.974;23.708;2023-05-06T00:24:22;5.40;;;3.85;;
80211;SDS011;69530;37.974;23.708;2023-05-06T00:26:48;6.75;;;3.83;;
80211;SDS011;69530;37.974;23.708;2023-05-06T00:29:14;5.15;;;3.67;;
80211;SDS011;69530;37.974;23.708;2023-05-06T00:31:40;6.50;;;3.53;;
80211;SDS011;69530;37.974;23.708;2023-05-06T00:34:06;6.95;;;3.35;;
80211;SDS011;69530;37.974;23.708;2023-05-06T00:36:32;5.15;;;3.33;;
80211;SDS011;69530;37.974;23.708;2023-05-06T00:38:58;4.60;;;3.20;;
80211;SDS011;69530;37.974;23.708;2023-05-06T00:41:24;5.28;;;3.17;;
80211;SDS011;69530;37.974;23.708;2023-05-06T00:43:50;4.88;;;3.55;;
80211;SDS011;69530;37.974;23.708;2023-05-06T00:46:15;5.07;;;3.70;;
80211;SDS011;69530;37.974;23.708;2023-05-06T00:48:42;5.75;;;3.13;;
80211;SDS011;69530;37.974;23.708;2023-05-06T00:51:09;5.78;;;3.33;;
80211;SDS011;69530;37.974;23.708;2023-05-06T00:53:35;4.40;;;2.97;;
80211;SDS011;69530;37.974;23.708;2023-05-06T00:56:02;7.13;;;3.40;;
80211;SDS011;69530;37.974;23.708;2023-05-06T00:58:28;4.68;;;3.35;;
80211;SDS011;69530;37.974;23.708;2023-05-06T01:00:54;6.57;;;3.40;;
80211;SDS011;69530;37.974;23.708;2023-05-06T01:03:20;7.70;;;3.15;;
80211;SDS011;69530;37.974;23.708;2023-05-06T01:06:03;4.82;;;3.55;;
80211;SDS011;69530;37.974;23.708;2023-05-06T01:11:21;5.07;;;2.58;;
80211;SDS011;69530;37.974;23.708;2023-05-06T01:16:30;3.95;;;2.55;;
80211;SDS011;69530;37.974;23.708;2023-05-06T01:18:58;3.97;;;2.55;;
80211;SDS011;69530;37.974;23.708;2023-05-06T01:21:24;4.32;;;2.45;;
80211;SDS011;69530;37.974;23.708;2023-05-06T01:23:58;4.40;;;2.72;;
80211;SDS011;69530;37.974;23.708;2023-05-06T01:26:24;4.75;;;2.92;;
80211;SDS011;69530;37.974;23.708;2023-05-06T01:28:51;5.00;;;3.03;;
80211;SDS011;69530;37.974;23.708;2023-05-06T01:31:25;4.68;;;2.85;;
80211;SDS011;69530;37.974;23.708;2023-05-06T01:36:40;5.38;;;2.67;;
80211;SDS011;69530;37.974;23.708;2023-05-06T01:39:24;7.55;;;2.67;;
80211;SDS011;69530;37.974;23.708;2023-05-06T01:44:17;4.57;;;2.33;;
80211;SDS011;69530;37.974;23.708;2023-05-06T01:46:46;3.05;;;2.10;;
80211;SDS011;69530;37.974;23.708;2023-05-06T01:49:13;4.95;;;2.65;;
80211;SDS011;69530;37.974;23.708;2023-05-06T01:51:45;5.40;;;2.53;;
80211;SDS011;69530;37.974;23.708;2023-05-06T01:54:15;4.63;;;2.75;;
80211;SDS011;69530;37.974;23.708;2023-05-06T01:56:41;3.95;;;2.42;;
80211;SDS011;69530;37.974;23.708;2023-05-06T01:59:06;3.67;;;2.47;;
80211;SDS011;69530;37.974;23.708;2023-05-06T02:01:32;3.72;;;2.08;;
80211;SDS011;69530;37.974;23.708;2023-05-06T02:03:58;5.25;;;2.70;;
80211;SDS011;69530;37.974;23.708;2023-05-06T02:06:24;4.00;;;2.45;;
80211;SDS011;69530;37.974;23.708;2023-05-06T02:08:50;4.22;;;2.63;;
80211;SDS011;69530;37.974;23.708;2023-05-06T02:11:16;5.70;;;3.00;;
80211;SDS011;69530;37.974;23.708;2023-05-06T02:13:43;5.28;;;2.50;;
80211;SDS011;69530;37.974;23.708;2023-05-06T02:16:08;5.53;;;2.75;;
80211;SDS011;69530;37.974;23.708;2023-05-06T02:18:34;4.88;;;2.67;;
80211;SDS011;69530;37.974;23.708;2023-05-06T02:21:00;4.38;;;2.40;;
80211;SDS011;69530;37.974;23.708;2023-05-06T02:23:27;3.75;;;2.25;;
80211;SDS011;69530;37.974;23.708;2023-05-06T02:25:53;2.83;;;1.95;;
80211;SDS011;69530;37.974;23.708;2023-05-06T02:28:18;4.82;;;2.30;;
80211;SDS011;69530;37.974;23.708;2023-05-06T02:30:44;4.00;;;2.55;;
80211;SDS011;69530;37.974;23.708;2023-05-06T02:33:10;5.55;;;2.30;;
80211;SDS011;69530;37.974;23.708;2023-05-06T02:35:36;4.38;;;2.50;;
80211;SDS011;69530;37.974;23.708;2023-05-06T02:38:01;5.18;;;2.20;;
80211;SDS011;69530;37.974;23.708;2023-05-06T02:40:28;3.42;;;2.15;;
80211;SDS011;69530;37.974;23.708;2023-05-06T02:42:54;4.28;;;2.30;;
80211;SDS011;69530;37.974;23.708;2023-05-06T02:45:19;3.38;;;2.10;;
80211;SDS011;69530;37.974;23.708;2023-05-06T02:47:45;3.58;;;2.20;;
80211;SDS011;69530;37.974;23.708;2023-05-06T02:50:11;4.22;;;2.17;;
80211;SDS011;69530;37.974;23.708;2023-05-06T02:52:37;6.20;;;2.17;;
80211;SDS011;69530;37.974;23.708;2023-05-06T02:55:03;3.03;;;2.00;;
80211;SDS011;69530;37.974;23.708;2023-05-06T02:57:29;6.80;;;2.60;;
80211;SDS011;69530;37.974;23.708;2023-05-06T02:59:55;5.75;;;2.47;;
80211;SDS011;69530;37.974;23.708;2023-05-06T03:02:21;4.22;;;2.45;;
80211;SDS011;69530;37.974;23.708;2023-05-06T03:04:47;3.42;;;2.20;;
80211;SDS011;69530;37.974;23.708;2023-05-06T03:07:12;5.22;;;1.80;;
80211;SDS011;69530;37.974;23.708;2023-05-06T03:09:38;3.90;;;2.08;;
80211;SDS011;69530;37.974;23.708;2023-05-06T03:12:04;3.85;;;2.00;;
80211;SDS011;69530;37.974;23.708;2023-05-06T03:14:30;3.90;;;2.35;;
80211;SDS011;69530;37.974;23.708;2023-05-06T03:16:56;6.78;;;2.08;;
80211;SDS011;69530;37.974;23.708;2023-05-06T03:19:21;3.60;;;2.00;;
80211;SDS011;69530;37.974;23.708;2023-05-06T03:21:47;4.20;;;1.90;;
80211;SDS011;69530;37.974;23.708;2023-05-06T03:24:13;5.57;;;2.10;;
80211;SDS011;69530;37.974;23.708;2023-05-06T03:26:39;5.25;;;1.85;;
80211;SDS011;69530;37.974;23.708;2023-05-06T03:29:05;4.13;;;2.00;;
80211;SDS011;69530;37.974;23.708;2023-05-06T03:31:30;3.33;;;2.20;;
80211;SDS011;69530;37.974;23.708;2023-05-06T03:33:56;3.05;;;1.90;;
80211;SDS011;69530;37.974;23.708;2023-05-06T03:36:22;3.42;;;1.80;;
80211;SDS011;69530;37.974;23.708;2023-05-06T03:38:49;3.75;;;2.33;;
80211;SDS011;69530;37.974;23.708;2023-05-06T03:41:15;2.80;;;2.00;;
80211;SDS011;69530;37.974;23.708;2023-05-06T03:43:42;4.53;;;2.58;;
80211;SDS011;69530;37.974;23.708;2023-05-06T03:46:08;6.93;;;2.40;;
80211;SDS011;69530;37.974;23.708;2023-05-06T03:48:33;4.13;;;2.00;;
80211;SDS011;69530;37.974;23.708;2023-05-06T03:50:59;4.68;;;1.90;;
80211;SDS011;69530;37.974;23.708;2023-05-06T03:53:25;3.47;;;2.05;;
80211;SDS011;69530;37.974;23.708;2023-05-06T03:55:52;4.47;;;2.10;;
80211;SDS011;69530;37.974;23.708;2023-05-06T03:58:17;3.50;;;2.20;;
80211;SDS011;69530;37.974;23.708;2023-05-06T04:00:43;3.83;;;2.30;;
80211;SDS011;69530;37.974;23.708;2023-05-06T04:03:09;4.97;;;2.08;;
80211;SDS011;69530;37.974;23.708;2023-05-06T04:05:35;4.78;;;1.90;;
80211;SDS011;69530;37.974;23.708;2023-05-06T04:08:01;4.22;;;2.20;;
80211;SDS011;69530;37.974;23.708;2023-05-06T04:10:26;3.35;;;2.20;;
80211;SDS011;69530;37.974;23.708;2023-05-06T04:12:53;5.38;;;1.92;;
80211;SDS011;69530;37.974;23.708;2023-05-06T04:15:18;4.63;;;1.90;;
80211;SDS011;69530;37.974;23.708;2023-05-06T04:17:44;4.57;;;2.58;;
80211;SDS011;69530;37.974;23.708;2023-05-06T04:20:10;3.75;;;1.90;;
80211;SDS011;69530;37.974;23.708;2023-05-06T04:22:36;3.47;;;1.83;;
80211;SDS011;69530;37.974;23.708;2023-05-06T04:25:02;2.75;;;1.90;;
80211;SDS011;69530;37.974;23.708;2023-05-06T04:27:29;5.68;;;2.53;;
80211;SDS011;69530;37.974;23.708;2023-05-06T04:29:56;4.57;;;2.53;;
80211;SDS011;69530;37.974;23.708;2023-05-06T04:32:22;3.60;;;2.08;;
80211;SDS011;69530;37.974;23.708;2023-05-06T04:34:51;3.13;;;1.92;;
80211;SDS011;69530;37.974;23.708;2023-05-06T04:37:17;3.22;;;2.05;;
80211;SDS011;69530;37.974;23.708;2023-05-06T04:39:44;4.10;;;2.25;;
80211;SDS011;69530;37.974;23.708;2023-05-06T04:42:13;3.33;;;2.20;;
80211;SDS011;69530;37.974;23.708;2023-05-06T04:44:39;3.28;;;2.10;;
80211;SDS011;69530;37.974;23.708;2023-05-06T04:47:05;3.20;;;2.10;;
80211;SDS011;69530;37.974;23.708;2023-05-06T04:49:31;3.38;;;2.22;;
80211;SDS011;69530;37.974;23.708;2023-05-06T04:51:57;3.70;;;2.00;;
80211;SDS011;69530;37.974;23.708;2023-05-06T04:54:23;4.22;;;2.35;;
80211;SDS011;69530;37.974;23.708;2023-05-06T04:56:48;4.55;;;2.38;;
80211;SDS011;69530;37.974;23.708;2023-05-06T04:59:14;3.72;;;1.70;;
80211;SDS011;69530;37.974;23.708;2023-05-06T05:01:40;3.95;;;2.30;;
80211;SDS011;69530;37.974;23.708;2023-05-06T05:04:06;4.78;;;2.28;;
80211;SDS011;69530;37.974;23.708;2023-05-06T05:06:31;3.90;;;2.30;;
80211;SDS011;69530;37.974;23.708;2023-05-06T05:08:57;4.25;;;2.28;;
80211;SDS011;69530;37.974;23.708;2023-05-06T05:11:23;3.45;;;2.00;;
80211;SDS011;69530;37.974;23.708;2023-05-06T05:13:49;5.15;;;2.63;;
80211;SDS011;69530;37.974;23.708;2023-05-06T05:16:15;4.15;;;2.38;;
80211;SDS011;69530;37.974;23.708;2023-05-06T05:18:41;5.43;;;2.65;;
80211;SDS011;69530;37.974;23.708;2023-05-06T05:21:07;3.55;;;2.30;;
80211;SDS011;69530;37.974;23.708;2023-05-06T05:23:33;3.58;;;2.53;;
80211;SDS011;69530;37.974;23.708;2023-05-06T05:25:59;4.10;;;2.20;;
80211;SDS011;69530;37.974;23.708;2023-05-06T05:28:25;3.67;;;2.47;;
80211;SDS011;69530;37.974;23.708;2023-05-06T05:30:52;3.20;;;2.38;;
80211;SDS011;69530;37.974;23.708;2023-05-06T05:33:17;3.55;;;2.20;;
80211;SDS011;69530;37.974;23.708;2023-05-06T05:35:43;3.42;;;2.25;;
80211;SDS011;69530;37.974;23.708;2023-05-06T05:38:09;4.20;;;2.53;;
80211;SDS011;69530;37.974;23.708;2023-05-06T05:40:37;3.63;;;2.22;;
80211;SDS011;69530;37.974;23.708;2023-05-06T05:43:02;4.53;;;2.22;;
80211;SDS011;69530;37.974;23.708;2023-05-06T05:45:28;5.32;;;2.53;;
80211;SDS011;69530;37.974;23.708;2023-05-06T05:47:54;4.72;;;2.30;;
80211;SDS011;69530;37.974;23.708;2023-05-06T05:50:20;4.93;;;2.15;;
80211;SDS011;69530;37.974;23.708;2023-05-06T05:52:45;3.85;;;2.30;;
80211;SDS011;69530;37.974;23.708;2023-05-06T05:55:11;4.28;;;2.42;;
80211;SDS011;69530;37.974;23.708;2023-05-06T05:57:37;3.58;;;2.20;;
80211;SDS011;69530;37.974;23.708;2023-05-06T06:00:03;5.07;;;2.47;;
80211;SDS011;69530;37.974;23.708;2023-05-06T06:02:29;4.82;;;2.30;;
80211;SDS011;69530;37.974;23.708;2023-05-06T06:04:55;4.55;;;2.55;;
80211;SDS011;69530;37.974;23.708;2023-05-06T06:07:21;3.45;;;2.45;;
80211;SDS011;69530;37.974;23.708;2023-05-06T06:09:47;3.75;;;2.38;;
80211;SDS011;69530;37.974;23.708;2023-05-06T06:12:13;4.95;;;2.30;;
80211;SDS011;69530;37.974;23.708;2023-05-06T06:14:39;4.95;;;2.60;;
80211;SDS011;69530;37.974;23.708;2023-05-06T06:17:04;5.70;;;2.58;;
80211;SDS011;69530;37.974;23.708;2023-05-06T06:19:31;3.78;;;2.25;;
80211;SDS011;69530;37.974;23.708;2023-05-06T06:21:56;5.88;;;2.55;;
80211;SDS011;69530;37.974;23.708;2023-05-06T06:24:23;4.30;;;2.42;;
80211;SDS011;69530;37.974;23.708;2023-05-06T06:26:49;5.18;;;2.80;;
80211;SDS011;69530;37.974;23.708;2023-05-06T06:29:14;4.78;;;2.60;;
80211;SDS011;69530;37.974;23.708;2023-05-06T06:31:40;6.40;;;2.80;;
80211;SDS011;69530;37.974;23.708;2023-05-06T06:34:06;5.05;;;2.75;;
80211;SDS011;69530;37.974;23.708;2023-05-06T06:36:33;4.00;;;2.17;;
80211;SDS011;69530;37.974;23.708;2023-05-06T06:38:58;4.13;;;3.00;;
80211;SDS011;69530;37.974;23.708;2023-05-06T06:41:25;4.05;;;2.58;;
80211;SDS011;69530;37.974;23.708;2023-05-06T06:43:51;3.85;;;2.45;;
80211;SDS011;69530;37.974;23.708;2023-05-06T06:46:17;4.75;;;2.72;;
80211;SDS011;69530;37.974;23.708;2023-05-06T06:48:42;6.18;;;2.70;;
80211;SDS011;69530;37.974;23.708;2023-05-06T06:51:08;7.50;;;2.75;;
80211;SDS011;69530;37.974;23.708;2023-05-06T06:53:33;5.32;;;2.40;;
80211;SDS011;69530;37.974;23.708;2023-05-06T06:55:59;3.95;;;2.47;;
80211;SDS011;69530;37.974;23.708;2023-05-06T06:58:25;3.22;;;2.47;;
80211;SDS011;69530;37.974;23.708;2023-05-06T07:00:51;5.43;;;2.90;;
80211;SDS011;69530;37.974;23.708;2023-05-06T07:03:17;4.25;;;2.30;;
80211;SDS011;69530;37.974;23.708;2023-05-06T07:05:43;5.20;;;2.80;;
80211;SDS011;69530;37.974;23.708;2023-05-06T07:08:09;4.50;;;2.38;;
80211;SDS011;69530;37.974;23.708;2023-05-06T07:10:35;4.32;;;2.70;;
80211;SDS011;69530;37.974;23.708;2023-05-06T07:13:01;3.83;;;2.47;;
80211;SDS011;69530;37.974;23.708;2023-05-06T07:15:27;4.05;;;2.35;;
80211;SDS011;69530;37.974;23.708;2023-05-06T07:17:53;3.83;;;2.03;;
80211;SDS011;69530;37.974;23.708;2023-05-06T07:20:18;6.00;;;2.50;;
80211;SDS011;69530;37.974;23.708;2023-05-06T07:22:44;5.07;;;2.35;;
80211;SDS011;69530;37.974;23.708;2023-05-06T07:25:10;7.70;;;3.00;;
80211;SDS011;69530;37.974;23.708;2023-05-06T07:27:36;4.32;;;2.60;;
80211;SDS011;69530;37.974;23.708;2023-05-06T07:30:01;6.43;;;2.80;;
80211;SDS011;69530;37.974;23.708;2023-05-06T07:32:27;4.78;;;2.78;;
80211;SDS011;69530;37.974;23.708;2023-05-06T07:34:53;5.47;;;2.63;;
80211;SDS011;69530;37.974;23.708;2023-05-06T07:37:19;4.63;;;2.10;;
80211;SDS011;69530;37.974;23.708;2023-05-06T07:39:44;4.07;;;2.45;;
80211;SDS011;69530;37.974;23.708;2023-05-06T07:42:10;4.15;;;2.45;;
80211;SDS011;69530;37.974;23.708;2023-05-06T07:44:37;8.93;;;2.47;;
80211;SDS011;69530;37.974;23.708;2023-05-06T07:47:03;5.43;;;2.80;;
80211;SDS011;69530;37.974;23.708;2023-05-06T07:49:29;4.45;;;2.63;;
80211;SDS011;69530;37.974;23.708;2023-05-06T07:51:57;4.50;;;2.50;;
80211;SDS011;69530;37.974;23.708;2023-05-06T07:54:23;4.68;;;2.10;;
80211;SDS011;69530;37.974;23.708;2023-05-06T07:56:49;5.75;;;2.70;;
80211;SDS011;69530;37.974;23.708;2023-05-06T07:59:15;4.97;;;2.75;;
80211;SDS011;69530;37.974;23.708;2023-05-06T08:01:41;4.38;;;2.67;;
80211;SDS011;69530;37.974;23.708;2023-05-06T08:04:06;4.22;;;2.35;;
80211;SDS011;69530;37.974;23.708;2023-05-06T08:06:32;4.78;;;2.83;;
80211;SDS011;69530;37.974;23.708;2023-05-06T08:08:58;5.10;;;2.45;;
80211;SDS011;69530;37.974;23.708;2023-05-06T08:11:24;8.60;;;3.58;;
80211;SDS011;69530;37.974;23.708;2023-05-06T08:13:50;4.60;;;2.60;;
80211;SDS011;69530;37.974;23.708;2023-05-06T08:16:15;5.05;;;2.55;;
80211;SDS011;69530;37.974;23.708;2023-05-06T08:18:41;4.38;;;2.50;;
80211;SDS011;69530;37.974;23.708;2023-05-06T08:21:07;5.18;;;2.67;;
80211;SDS011;69530;37.974;23.708;2023-05-06T08:23:33;5.28;;;2.60;;
80211;SDS011;69530;37.974;23.708;2023-05-06T08:25:59;3.30;;;2.30;;
80211;SDS011;69530;37.974;23.708;2023-05-06T08:28:25;4.07;;;2.60;;
80211;SDS011;69530;37.974;23.708;2023-05-06T08:30:53;5.13;;;2.75;;
80211;SDS011;69530;37.974;23.708;2023-05-06T08:33:18;4.47;;;2.67;;
80211;SDS011;69530;37.974;23.708;2023-05-06T08:35:45;5.60;;;2.70;;
80211;SDS011;69530;37.974;23.708;2023-05-06T08:38:11;7.28;;;2.75;;
80211;SDS011;69530;37.974;23.708;2023-05-06T08:40:40;5.15;;;2.65;;
80211;SDS011;69530;37.974;23.708;2023-05-06T08:43:10;3.58;;;2.28;;
80211;SDS011;69530;37.974;23.708;2023-05-06T08:45:38;5.82;;;2.90;;
80211;SDS011;69530;37.974;23.708;2023-05-06T08:48:05;3.75;;;2.60;;
80211;SDS011;69530;37.974;23.708;2023-05-06T08:50:31;4.47;;;3.03;;
80211;SDS011;69530;37.974;23.708;2023-05-06T08:52:57;5.35;;;2.60;;
80211;SDS011;69530;37.974;23.708;2023-05-06T08:55:24;5.80;;;2.40;;
80211;SDS011;69530;37.974;23.708;2023-05-06T08:57:51;4.05;;;2.40;;
80211;SDS011;69530;37.974;23.708;2023-05-06T09:00:18;6.57;;;2.53;;
80211;SDS011;69530;37.974;23.708;2023-05-06T09:02:44;4.40;;;2.70;;
80211;SDS011;69530;37.974;23.708;2023-05-06T09:05:10;5.13;;;2.63;;
80211;SDS011;69530;37.974;23.708;2023-05-06T09:07:36;5.15;;;2.70;;
80211;SDS011;69530;37.974;23.708;2023-05-06T09:10:20;5.32;;;2.72;;
80211;SDS011;69530;37.974;23.708;2023-05-06T09:12:46;6.82;;;2.70;;
80211;SDS011;69530;37.974;23.708;2023-05-06T09:15:11;4.47;;;2.30;;
80211;SDS011;69530;37.974;23.708;2023-05-06T09:17:37;4.43;;;2.75;;
80211;SDS011;69530;37.974;23.708;2023-05-06T09:20:03;4.65;;;2.65;;
80211;SDS011;69530;37.974;23.708;2023-05-06T09:22:32;4.80;;;2.42;;
80211;SDS011;69530;37.974;23.708;2023-05-06T09:24:58;5.30;;;2.88;;
80211;SDS011;69530;37.974;23.708;2023-05-06T09:27:28;5.72;;;2.70;;
80211;SDS011;69530;37.974;23.708;2023-05-06T09:29:58;4.65;;;2.83;;
80211;SDS011;69530;37.974;23.708;2023-05-06T09:32:31;3.92;;;2.45;;
80211;SDS011;69530;37.974;23.708;2023-05-06T09:34:58;5.47;;;2.90;;
80211;SDS011;69530;37.974;23.708;2023-05-06T09:37:24;5.40;;;2.45;;
80211;SDS011;69530;37.974;23.708;2023-05-06T09:39:54;4.63;;;2.75;;
80211;SDS011;69530;37.974;23.708;2023-05-06T09:42:22;6.13;;;2.78;;
80211;SDS011;69530;37.974;23.708;2023-05-06T09:44:50;6.43;;;2.65;;
80211;SDS011;69530;37.974;23.708;2023-05-06T09:47:17;4.18;;;2.50;;
80211;SDS011;69530;37.974;23.708;2023-05-06T09:49:44;4.18;;;2.42;;
80211;SDS011;69530;37.974;23.708;2023-05-06T09:52:10;4.13;;;2.47;;
80211;SDS011;69530;37.974;23.708;2023-05-06T09:54:37;4.88;;;2.70;;
80211;SDS011;69530;37.974;23.708;2023-05-06T09:57:03;4.88;;;2.78;;
80211;SDS011;69530;37.974;23.708;2023-05-06T09:59:29;3.92;;;2.65;;
80211;SDS011;69530;37.974;23.708;2023-05-06T10:01:57;5.38;;;3.10;;
80211;SDS011;69530;37.974;23.708;2023-05-06T10:04:24;5.28;;;2.25;;
80211;SDS011;69530;37.974;23.708;2023-05-06T10:06:52;3.50;;;2.50;;
80211;SDS011;69530;37.974;23.708;2023-05-06T10:09:23;3.63;;;2.38;;
80211;SDS011;69530;37.974;23.708;2023-05-06T10:11:49;6.57;;;2.55;;
80211;SDS011;69530;37.974;23.708;2023-05-06T10:14:17;4.78;;;2.60;;
80211;SDS011;69530;37.974;23.708;2023-05-06T10:16:44;3.25;;;2.20;;
80211;SDS011;69530;37.974;23.708;2023-05-06T10:19:12;5.53;;;2.47;;
80211;SDS011;69530;37.974;23.708;2023-05-06T10:21:41;5.80;;;3.13;;
80211;SDS011;69530;37.974;23.708;2023-05-06T10:26:40;3.85;;;2.22;;
80211;SDS011;69530;37.974;23.708;2023-05-06T10:29:09;6.30;;;2.83;;
80211;SDS011;69530;37.974;23.708;2023-05-06T10:31:39;6.88;;;2.65;;
80211;SDS011;69530;37.974;23.708;2023-05-06T10:34:10;3.75;;;2.58;;
80211;SDS011;69530;37.974;23.708;2023-05-06T10:36:36;6.78;;;2.63;;
80211;SDS011;69530;37.974;23.708;2023-05-06T10:39:03;4.97;;;2.88;;
80211;SDS011;69530;37.974;23.708;2023-05-06T10:41:31;5.45;;;2.53;;
80211;SDS011;69530;37.974;23.708;2023-05-06T10:44:01;4.22;;;2.15;;
80211;SDS011;69530;37.974;23.708;2023-05-06T10:46:27;4.70;;;2.80;;
80211;SDS011;69530;37.974;23.708;2023-05-06T10:51:41;4.20;;;2.75;;
80211;SDS011;69530;37.974;23.708;2023-05-06T10:54:20;5.75;;;2.83;;
80211;SDS011;69530;37.974;23.708;2023-05-06T10:59:12;3.97;;;2.50;;
80211;SDS011;69530;37.974;23.708;2023-05-06T11:01:39;6.32;;;2.40;;
80211;SDS011;69530;37.974;23.708;2023-05-06T11:04:07;6.22;;;2.67;;
80211;SDS011;69530;37.974;23.708;2023-05-06T11:06:39;5.28;;;2.50;;
80211;SDS011;69530;37.974;23.708;2023-05-06T11:14:11;3.70;;;2.22;;
80211;SDS011;69530;37.974;23.708;2023-05-06T11:16:50;5.13;;;2.25;;
80211;SDS011;69530;37.974;23.708;2023-05-06T11:19:18;3.00;;;2.30;;
80211;SDS011;69530;37.974;23.708;2023-05-06T11:21:55;5.68;;;2.40;;
80211;SDS011;69530;37.974;23.708;2023-05-06T11:24:23;4.10;;;2.38;;
80211;SDS011;69530;37.974;23.708;2023-05-06T11:26:57;9.38;;;2.55;;
80211;SDS011;69530;37.974;23.708;2023-05-06T11:29:24;5.68;;;2.45;;
80211;SDS011;69530;37.974;23.708;2023-05-06T11:31:50;7.47;;;2.88;;
80211;SDS011;69530;37.974;23.708;2023-05-06T11:34:20;6.45;;;2.63;;
80211;SDS011;69530;37.974;23.708;2023-05-06T11:36:51;5.57;;;2.63;;
80211;SDS011;69530;37.974;23.708;2023-05-06T11:39:17;3.45;;;2.20;;
80211;SDS011;69530;37.974;23.708;2023-05-06T11:41:43;4.88;;;2.83;;
80211;SDS011;69530;37.974;23.708;2023-05-06T11:44:08;3.60;;;2.55;;
80211;SDS011;69530;37.974;23.708;2023-05-06T11:46:36;4.15;;;2.42;;
80211;SDS011;69530;37.974;23.708;2023-05-06T11:49:02;4.30;;;2.22;;
80211;SDS011;69530;37.974;23.708;2023-05-06T11:51:28;3.45;;;2.38;;
80211;SDS011;69530;37.974;23.708;2023-05-06T11:54:04;4.63;;;2.10;;
80211;SDS011;69530;37.974;23.708;2023-05-06T11:56:53;4.30;;;2.75;;
80211;SDS011;69530;37.974;23.708;2023-05-06T11:59:33;3.88;;;2.38;;
80211;SDS011;69530;37.974;23.708;2023-05-06T12:02:02;3.45;;;2.40;;
80211;SDS011;69530;37.974;23.708;2023-05-06T12:04:43;4.28;;;2.40;;
80211;SDS011;69530;37.974;23.708;2023-05-06T12:07:11;4.13;;;2.40;;
80211;SDS011;69530;37.974;23.708;2023-05-06T12:09:38;4.50;;;2.60;;
80211;SDS011;69530;37.974;23.708;2023-05-06T12:12:09;6.68;;;2.40;;
80211;SDS011;69530;37.974;23.708;2023-05-06T12:14:36;6.63;;;2.45;;
80211;SDS011;69530;37.974;23.708;2023-05-06T12:17:03;5.68;;;2.60;;
80211;SDS011;69530;37.974;23.708;2023-05-06T12:19:31;3.75;;;2.03;;
80211;SDS011;69530;37.974;23.708;2023-05-06T12:22:16;3.45;;;2.20;;
80211;SDS011;69530;37.974;23.708;2023-05-06T12:24:44;6.20;;;2.30;;
80211;SDS011;69530;37.974;23.708;2023-05-06T12:27:10;5.80;;;2.20;;
80211;SDS011;69530;37.974;23.708;2023-05-06T12:29:36;4.80;;;2.65;;
80211;SDS011;69530;37.974;23.708;2023-05-06T12:32:08;3.67;;;2.20;;
80211;SDS011;69530;37.974;23.708;2023-05-06T12:34:38;5.32;;;2.47;;
80211;SDS011;69530;37.974;23.708;2023-05-06T12:37:05;4.30;;;2.58;;
80211;SDS011;69530;37.974;23.708;2023-05-06T12:39:36;4.15;;;2.58;;
80211;SDS011;69530;37.974;23.708;2023-05-06T12:42:03;6.93;;;2.83;;
80211;SDS011;69530;37.974;23.708;2023-05-06T12:44:37;5.03;;;2.47;;
80211;SDS011;69530;37.974;23.708;2023-05-06T12:47:07;3.67;;;2.28;;
80211;SDS011;69530;37.974;23.708;2023-05-06T12:49:47;5.07;;;2.30;;
80211;SDS011;69530;37.974;23.708;2023-05-06T12:52:13;5.55;;;2.60;;
80211;SDS011;69530;37.974;23.708;2023-05-06T12:54:39;5.20;;;2.72;;
80211;SDS011;69530;37.974;23.708;2023-05-06T12:57:05;4.88;;;2.80;;
80211;SDS011;69530;37.974;23.708;2023-05-06T12:59:31;4.80;;;2.53;;
80211;SDS011;69530;37.974;23.708;2023-05-06T13:01:58;4.65;;;2.70;;
80211;SDS011;69530;37.974;23.708;2023-05-06T13:04:24;5.35;;;2.70;;
80211;SDS011;69530;37.974;23.708;2023-05-06T13:06:51;5.75;;;3.38;;
80211;SDS011;69530;37.974;23.708;2023-05-06T13:09:17;6.38;;;2.42;;
80211;SDS011;69530;37.974;23.708;2023-05-06T13:11:42;4.43;;;2.30;;
80211;SDS011;69530;37.974;23.708;2023-05-06T13:14:08;3.58;;;2.20;;
80211;SDS011;69530;37.974;23.708;2023-05-06T13:16:34;4.93;;;2.58;;
80211;SDS011;69530;37.974;23.708;2023-05-06T13:19:01;3.83;;;2.28;;
80211;SDS011;69530;37.974;23.708;2023-05-06T13:21:28;4.15;;;2.55;;
80211;SDS011;69530;37.974;23.708;2023-05-06T13:23:56;4.75;;;2.80;;
80211;SDS011;69530;37.974;23.708;2023-05-06T13:26:21;5.75;;;2.80;;
80211;SDS011;69530;37.974;23.708;2023-05-06T13:28:47;5.97;;;2.20;;
80211;SDS011;69530;37.974;23.708;2023-05-06T13:31:13;5.25;;;2.60;;
80211;SDS011;69530;37.974;23.708;2023-05-06T13:33:39;7.68;;;3.17;;
80211;SDS011;69530;37.974;23.708;2023-05-06T13:36:04;4.88;;;2.70;;
80211;SDS011;69530;37.974;23.708;2023-05-06T13:38:30;4.50;;;2.58;;
80211;SDS011;69530;37.974;23.708;2023-05-06T13:40:56;3.65;;;2.30;;
80211;SDS011;69530;37.974;23.708;2023-05-06T13:43:22;6.03;;;2.42;;
80211;SDS011;69530;37.974;23.708;2023-05-06T13:45:51;4.93;;;2.40;;
80211;SDS011;69530;37.974;23.708;2023-05-06T13:48:17;3.60;;;2.03;;
80211;SDS011;69530;37.974;23.708;2023-05-06T13:50:43;5.63;;;2.13;;
80211;SDS011;69530;37.974;23.708;2023-05-06T13:53:13;5.30;;;2.05;;
80211;SDS011;69530;37.974;23.708;2023-05-06T13:55:39;4.38;;;2.40;;
80211;SDS011;69530;37.974;23.708;2023-05-06T13:58:05;3.75;;;2.30;;
80211;SDS011;69530;37.974;23.708;2023-05-06T14:00:32;4.25;;;2.22;;
80211;SDS011;69530;37.974;23.708;2023-05-06T14:02:59;4.82;;;2.20;;
80211;SDS011;69530;37.974;23.708;2023-05-06T14:05:25;3.40;;;2.10;;
80211;SDS011;69530;37.974;23.708;2023-05-06T14:07:51;4.80;;;2.35;;
80211;SDS011;69530;37.974;23.708;2023-05-06T14:10:17;3.90;;;2.25;;
80211;SDS011;69530;37.974;23.708;2023-05-06T14:12:46;4.38;;;2.38;;
80211;SDS011;69530;37.974;23.708;2023-05-06T14:15:12;4.55;;;2.28;;
80211;SDS011;69530;37.974;23.708;2023-05-06T14:17:40;3.67;;;2.10;;
80211;SDS011;69530;37.974;23.708;2023-05-06T14:20:07;3.67;;;2.25;;
80211;SDS011;69530;37.974;23.708;2023-05-06T14:22:36;2.55;;;1.88;;
80211;SDS011;69530;37.974;23.708;2023-05-06T14:25:03;3.78;;;2.22;;
80211;SDS011;69530;37.974;23.708;2023-05-06T14:27:29;3.85;;;2.05;;
80211;SDS011;69530;37.974;23.708;2023-05-06T14:29:55;4.10;;;2.60;;
80211;SDS011;69530;37.974;23.708;2023-05-06T14:32:21;3.88;;;2.17;;
80211;SDS011;69530;37.974;23.708;2023-05-06T14:34:47;5.03;;;2.30;;
80211;SDS011;69530;37.974;23.708;2023-05-06T14:37:12;5.53;;;2.30;;
80211;SDS011;69530;37.974;23.708;2023-05-06T14:39:38;4.82;;;2.05;;
80211;SDS011;69530;37.974;23.708;2023-05-06T14:42:04;5.53;;;2.63;;
80211;SDS011;69530;37.974;23.708;2023-05-06T14:44:29;6.72;;;2.63;;
80211;SDS011;69530;37.974;23.708;2023-05-06T14:46:55;4.20;;;2.03;;
80211;SDS011;69530;37.974;23.708;2023-05-06T14:49:21;3.60;;;1.92;;
80211;SDS011;69530;37.974;23.708;2023-05-06T14:51:46;3.38;;;2.30;;
80211;SDS011;69530;37.974;23.708;2023-05-06T14:54:14;3.30;;;1.90;;